Terminal Aerodrome Forecast
Issued by NWS

Home | Current Version | Previous Version | Graphics & Text | Print | Product List | Glossary Off
Versions: 1 2 3 4 5 6 7 8 9 10 11 12 13 14 15 16 17 18 19 20 21 22 23 24

839
FTUS43 KDDC 211720
TAFHYS
TAF
KHYS 211720Z 2118/2218 15003KT P6SM SKC
     FM220200 04008KT P6SM OVC090
     FM220500 01009KT P6SM OVC080
     FM220900 34013G23KT P6SM OVC110
     FM221500 34014G24KT P6SM BKN130=

USA.gov is the U.S. government's official web portal to all federal, state and local government web resources and services.